sensor_id;sensor_type;location;lat;lon;timestamp;P1;durP1;ratioP1;P2;durP2;ratioP2
35257;SDS011;21385;50.878;8.050;2022-08-19T00:01:48;24.88;;;22.27;;
35257;SDS011;21385;50.878;8.050;2022-08-19T00:04:16;24.63;;;22.30;;
35257;SDS011;21385;50.878;8.050;2022-08-19T00:06:43;24.65;;;22.05;;
35257;SDS011;21385;50.878;8.050;2022-08-19T00:09:11;27.15;;;24.30;;
35257;SDS011;21385;50.878;8.050;2022-08-19T00:11:39;24.25;;;21.85;;
35257;SDS011;21385;50.878;8.050;2022-08-19T00:14:06;25.55;;;23.00;;
35257;SDS011;21385;50.878;8.050;2022-08-19T00:16:34;26.50;;;23.58;;
35257;SDS011;21385;50.878;8.050;2022-08-19T00:19:01;25.63;;;23.15;;
35257;SDS011;21385;50.878;8.050;2022-08-19T00:21:28;24.13;;;21.80;;
35257;SDS011;21385;50.878;8.050;2022-08-19T00:23:54;24.30;;;21.92;;
35257;SDS011;21385;50.878;8.050;2022-08-19T00:26:23;25.05;;;22.42;;
35257;SDS011;21385;50.878;8.050;2022-08-19T00:28:49;24.05;;;21.55;;
35257;SDS011;21385;50.878;8.050;2022-08-19T00:31:15;25.17;;;22.55;;
35257;SDS011;21385;50.878;8.050;2022-08-19T00:33:41;24.83;;;22.27;;
35257;SDS011;21385;50.878;8.050;2022-08-19T00:36:08;24.75;;;22.35;;
35257;SDS011;21385;50.878;8.050;2022-08-19T00:38:34;26.52;;;22.55;;
35257;SDS011;21385;50.878;8.050;2022-08-19T00:41:01;24.10;;;21.75;;
35257;SDS011;21385;50.878;8.050;2022-08-19T00:43:27;24.95;;;22.52;;
35257;SDS011;21385;50.878;8.050;2022-08-19T00:45:53;24.60;;;22.23;;
35257;SDS011;21385;50.878;8.050;2022-08-19T00:48:19;25.80;;;23.15;;
35257;SDS011;21385;50.878;8.050;2022-08-19T00:50:46;24.40;;;21.90;;
35257;SDS011;21385;50.878;8.050;2022-08-19T00:53:15;25.20;;;22.50;;
35257;SDS011;21385;50.878;8.050;2022-08-19T00:55:44;25.25;;;22.67;;
35257;SDS011;21385;50.878;8.050;2022-08-19T00:58:13;23.05;;;20.80;;
35257;SDS011;21385;50.878;8.050;2022-08-19T01:00:42;28.00;;;25.05;;
35257;SDS011;21385;50.878;8.050;2022-08-19T01:03:09;25.92;;;23.27;;
35257;SDS011;21385;50.878;8.050;2022-08-19T01:05:37;24.33;;;21.92;;
35257;SDS011;21385;50.878;8.050;2022-08-19T01:08:06;24.33;;;21.92;;
35257;SDS011;21385;50.878;8.050;2022-08-19T01:10:33;25.42;;;22.75;;
35257;SDS011;21385;50.878;8.050;2022-08-19T01:13:03;24.88;;;22.40;;
35257;SDS011;21385;50.878;8.050;2022-08-19T01:15:30;26.05;;;22.65;;
35257;SDS011;21385;50.878;8.050;2022-08-19T01:18:00;25.95;;;23.08;;
35257;SDS011;21385;50.878;8.050;2022-08-19T01:20:29;25.77;;;22.20;;
35257;SDS011;21385;50.878;8.050;2022-08-19T01:22:56;24.27;;;21.92;;
35257;SDS011;21385;50.878;8.050;2022-08-19T01:25:28;23.55;;;21.10;;
35257;SDS011;21385;50.878;8.050;2022-08-19T01:27:57;25.02;;;22.17;;
35257;SDS011;21385;50.878;8.050;2022-08-19T01:30:28;26.05;;;22.85;;
35257;SDS011;21385;50.878;8.050;2022-08-19T01:32:56;33.00;;;25.67;;
35257;SDS011;21385;50.878;8.050;2022-08-19T01:35:24;31.42;;;24.48;;
35257;SDS011;21385;50.878;8.050;2022-08-19T01:37:54;27.77;;;24.73;;
35257;SDS011;21385;50.878;8.050;2022-08-19T01:40:23;26.25;;;23.50;;
35257;SDS011;21385;50.878;8.050;2022-08-19T01:42:51;25.42;;;22.38;;
35257;SDS011;21385;50.878;8.050;2022-08-19T01:45:19;27.75;;;23.77;;
35257;SDS011;21385;50.878;8.050;2022-08-19T01:47:46;36.58;;;26.02;;
35257;SDS011;21385;50.878;8.050;2022-08-19T01:50:12;38.72;;;27.35;;
35257;SDS011;21385;50.878;8.050;2022-08-19T01:52:39;43.15;;;27.30;;
35257;SDS011;21385;50.878;8.050;2022-08-19T01:55:07;46.88;;;28.95;;
35257;SDS011;21385;50.878;8.050;2022-08-19T01:57:35;39.17;;;26.90;;
35257;SDS011;21385;50.878;8.050;2022-08-19T02:00:03;42.00;;;28.33;;
35257;SDS011;21385;50.878;8.050;2022-08-19T02:02:30;39.30;;;26.58;;
35257;SDS011;21385;50.878;8.050;2022-08-19T02:04:56;44.50;;;28.52;;
35257;SDS011;21385;50.878;8.050;2022-08-19T02:07:22;40.88;;;26.75;;
35257;SDS011;21385;50.878;8.050;2022-08-19T02:09:48;39.55;;;26.48;;
35257;SDS011;21385;50.878;8.050;2022-08-19T02:12:14;44.60;;;27.90;;
35257;SDS011;21385;50.878;8.050;2022-08-19T02:14:41;41.47;;;26.92;;
35257;SDS011;21385;50.878;8.050;2022-08-19T02:17:07;43.33;;;27.23;;
35257;SDS011;21385;50.878;8.050;2022-08-19T02:19:32;37.65;;;27.00;;
35257;SDS011;21385;50.878;8.050;2022-08-19T02:21:58;40.22;;;26.58;;
35257;SDS011;21385;50.878;8.050;2022-08-19T02:24:25;37.30;;;27.27;;
35257;SDS011;21385;50.878;8.050;2022-08-19T02:26:51;40.90;;;26.98;;
35257;SDS011;21385;50.878;8.050;2022-08-19T02:29:17;40.50;;;27.58;;
35257;SDS011;21385;50.878;8.050;2022-08-19T02:31:42;39.17;;;27.15;;
35257;SDS011;21385;50.878;8.050;2022-08-19T02:34:08;43.80;;;27.83;;
35257;SDS011;21385;50.878;8.050;2022-08-19T02:36:33;38.17;;;25.70;;
35257;SDS011;21385;50.878;8.050;2022-08-19T02:38:59;39.15;;;26.73;;
35257;SDS011;21385;50.878;8.050;2022-08-19T02:41:26;34.72;;;26.05;;
35257;SDS011;21385;50.878;8.050;2022-08-19T02:43:55;36.28;;;26.77;;
35257;SDS011;21385;50.878;8.050;2022-08-19T02:46:26;43.45;;;27.02;;
35257;SDS011;21385;50.878;8.050;2022-08-19T02:48:54;36.38;;;26.80;;
35257;SDS011;21385;50.878;8.050;2022-08-19T02:51:34;31.98;;;24.70;;
35257;SDS011;21385;50.878;8.050;2022-08-19T02:54:02;35.25;;;25.83;;
35257;SDS011;21385;50.878;8.050;2022-08-19T02:56:29;32.33;;;24.65;;
35257;SDS011;21385;50.878;8.050;2022-08-19T02:58:56;40.33;;;25.90;;
35257;SDS011;21385;50.878;8.050;2022-08-19T03:01:23;37.47;;;24.65;;
35257;SDS011;21385;50.878;8.050;2022-08-19T03:06:19;31.92;;;24.50;;
35257;SDS011;21385;50.878;8.050;2022-08-19T03:08:46;33.83;;;26.08;;
35257;SDS011;21385;50.878;8.050;2022-08-19T03:11:17;30.65;;;23.52;;
35257;SDS011;21385;50.878;8.050;2022-08-19T03:13:45;33.10;;;24.42;;
35257;SDS011;21385;50.878;8.050;2022-08-19T03:16:11;30.73;;;23.65;;
35257;SDS011;21385;50.878;8.050;2022-08-19T03:18:37;34.92;;;25.48;;
35257;SDS011;21385;50.878;8.050;2022-08-19T03:21:03;30.50;;;25.65;;
35257;SDS011;21385;50.878;8.050;2022-08-19T03:23:30;29.00;;;23.90;;
35257;SDS011;21385;50.878;8.050;2022-08-19T03:25:55;32.85;;;25.25;;
35257;SDS011;21385;50.878;8.050;2022-08-19T03:28:21;26.40;;;23.55;;
35257;SDS011;21385;50.878;8.050;2022-08-19T03:31:04;27.08;;;23.80;;
35257;SDS011;21385;50.878;8.050;2022-08-19T03:33:34;27.92;;;23.83;;
35257;SDS011;21385;50.878;8.050;2022-08-19T03:36:02;29.85;;;24.15;;
35257;SDS011;21385;50.878;8.050;2022-08-19T03:38:28;28.35;;;24.15;;
35257;SDS011;21385;50.878;8.050;2022-08-19T03:40:54;32.90;;;26.70;;
35257;SDS011;21385;50.878;8.050;2022-08-19T03:43:19;29.42;;;25.27;;
35257;SDS011;21385;50.878;8.050;2022-08-19T03:45:46;32.85;;;25.92;;
35257;SDS011;21385;50.878;8.050;2022-08-19T03:48:13;28.00;;;24.90;;
35257;SDS011;21385;50.878;8.050;2022-08-19T03:50:41;30.63;;;24.88;;
35257;SDS011;21385;50.878;8.050;2022-08-19T03:53:07;29.05;;;25.27;;
35257;SDS011;21385;50.878;8.050;2022-08-19T03:55:33;31.42;;;25.42;;
35257;SDS011;21385;50.878;8.050;2022-08-19T03:58:04;28.48;;;24.80;;
35257;SDS011;21385;50.878;8.050;2022-08-19T04:00:31;28.42;;;24.40;;
35257;SDS011;21385;50.878;8.050;2022-08-19T04:02:58;27.80;;;24.60;;
35257;SDS011;21385;50.878;8.050;2022-08-19T04:05:24;26.65;;;23.20;;
35257;SDS011;21385;50.878;8.050;2022-08-19T04:07:53;26.60;;;23.83;;
35257;SDS011;21385;50.878;8.050;2022-08-19T04:10:19;29.08;;;23.88;;
35257;SDS011;21385;50.878;8.050;2022-08-19T04:12:45;29.98;;;23.83;;
35257;SDS011;21385;50.878;8.050;2022-08-19T04:15:11;32.67;;;25.60;;
35257;SDS011;21385;50.878;8.050;2022-08-19T04:17:36;35.80;;;24.80;;
35257;SDS011;21385;50.878;8.050;2022-08-19T04:20:02;29.80;;;24.77;;
35257;SDS011;21385;50.878;8.050;2022-08-19T04:22:28;30.63;;;25.45;;
35257;SDS011;21385;50.878;8.050;2022-08-19T04:24:54;30.98;;;24.25;;
35257;SDS011;21385;50.878;8.050;2022-08-19T04:27:20;32.25;;;23.85;;
35257;SDS011;21385;50.878;8.050;2022-08-19T04:29:46;28.35;;;24.50;;
35257;SDS011;21385;50.878;8.050;2022-08-19T04:32:12;29.50;;;24.40;;
35257;SDS011;21385;50.878;8.050;2022-08-19T04:34:40;29.77;;;24.10;;
35257;SDS011;21385;50.878;8.050;2022-08-19T04:37:08;31.10;;;24.73;;
35257;SDS011;21385;50.878;8.050;2022-08-19T04:39:37;31.23;;;24.83;;
35257;SDS011;21385;50.878;8.050;2022-08-19T04:42:22;31.88;;;25.40;;
35257;SDS011;21385;50.878;8.050;2022-08-19T04:45:04;28.88;;;24.88;;
35257;SDS011;21385;50.878;8.050;2022-08-19T04:47:32;30.13;;;25.25;;
35257;SDS011;21385;50.878;8.050;2022-08-19T04:49:58;26.05;;;23.27;;
35257;SDS011;21385;50.878;8.050;2022-08-19T04:52:24;31.27;;;24.83;;
35257;SDS011;21385;50.878;8.050;2022-08-19T04:54:49;28.63;;;24.25;;
35257;SDS011;21385;50.878;8.050;2022-08-19T04:57:15;29.33;;;23.67;;
35257;SDS011;21385;50.878;8.050;2022-08-19T04:59:40;29.25;;;25.02;;
35257;SDS011;21385;50.878;8.050;2022-08-19T05:02:06;30.20;;;24.65;;
35257;SDS011;21385;50.878;8.050;2022-08-19T05:04:33;29.50;;;24.75;;
35257;SDS011;21385;50.878;8.050;2022-08-19T05:07:00;29.95;;;25.55;;
35257;SDS011;21385;50.878;8.050;2022-08-19T05:09:26;33.92;;;25.73;;
35257;SDS011;21385;50.878;8.050;2022-08-19T05:11:52;27.70;;;24.60;;
35257;SDS011;21385;50.878;8.050;2022-08-19T05:14:18;31.50;;;25.02;;
35257;SDS011;21385;50.878;8.050;2022-08-19T05:16:45;32.53;;;24.92;;
35257;SDS011;21385;50.878;8.050;2022-08-19T05:19:10;29.48;;;24.63;;
35257;SDS011;21385;50.878;8.050;2022-08-19T05:21:54;29.15;;;24.63;;
35257;SDS011;21385;50.878;8.050;2022-08-19T05:24:38;28.15;;;25.08;;
35257;SDS011;21385;50.878;8.050;2022-08-19T05:27:04;36.08;;;27.75;;
35257;SDS011;21385;50.878;8.050;2022-08-19T05:29:30;30.67;;;26.15;;
35257;SDS011;21385;50.878;8.050;2022-08-19T05:31:58;28.17;;;25.13;;
35257;SDS011;21385;50.878;8.050;2022-08-19T05:34:24;30.75;;;25.52;;
35257;SDS011;21385;50.878;8.050;2022-08-19T05:36:52;27.60;;;24.58;;
35257;SDS011;21385;50.878;8.050;2022-08-19T05:39:22;35.47;;;26.73;;
35257;SDS011;21385;50.878;8.050;2022-08-19T05:41:51;30.27;;;24.38;;
35257;SDS011;21385;50.878;8.050;2022-08-19T05:44:22;30.48;;;25.15;;
35257;SDS011;21385;50.878;8.050;2022-08-19T05:46:49;31.10;;;25.45;;
35257;SDS011;21385;50.878;8.050;2022-08-19T05:49:18;34.50;;;25.48;;
35257;SDS011;21385;50.878;8.050;2022-08-19T05:51:46;29.35;;;24.30;;
35257;SDS011;21385;50.878;8.050;2022-08-19T05:54:12;29.30;;;23.67;;
35257;SDS011;21385;50.878;8.050;2022-08-19T05:56:39;28.48;;;24.63;;
35257;SDS011;21385;50.878;8.050;2022-08-19T05:59:06;29.50;;;25.05;;
35257;SDS011;21385;50.878;8.050;2022-08-19T06:01:34;33.47;;;27.33;;
35257;SDS011;21385;50.878;8.050;2022-08-19T06:04:01;27.05;;;23.98;;
35257;SDS011;21385;50.878;8.050;2022-08-19T06:06:27;28.92;;;23.90;;
35257;SDS011;21385;50.878;8.050;2022-08-19T06:08:53;26.85;;;22.48;;
35257;SDS011;21385;50.878;8.050;2022-08-19T06:11:23;29.08;;;22.40;;
35257;SDS011;21385;50.878;8.050;2022-08-19T06:13:57;32.05;;;23.95;;
35257;SDS011;21385;50.878;8.050;2022-08-19T06:16:25;29.75;;;21.88;;
35257;SDS011;21385;50.878;8.050;2022-08-19T06:18:52;24.35;;;21.40;;
35257;SDS011;21385;50.878;8.050;2022-08-19T06:21:21;30.23;;;23.15;;
35257;SDS011;21385;50.878;8.050;2022-08-19T06:23:49;26.00;;;23.30;;
35257;SDS011;21385;50.878;8.050;2022-08-19T06:26:16;27.23;;;22.55;;
35257;SDS011;21385;50.878;8.050;2022-08-19T06:28:43;31.35;;;26.45;;
35257;SDS011;21385;50.878;8.050;2022-08-19T06:33:45;27.73;;;24.83;;
35257;SDS011;21385;50.878;8.050;2022-08-19T06:36:25;28.63;;;25.73;;
35257;SDS011;21385;50.878;8.050;2022-08-19T06:38:56;33.17;;;23.83;;
35257;SDS011;21385;50.878;8.050;2022-08-19T06:41:43;28.25;;;24.67;;
35257;SDS011;21385;50.878;8.050;2022-08-19T06:44:11;29.73;;;24.67;;
35257;SDS011;21385;50.878;8.050;2022-08-19T06:46:37;31.67;;;26.40;;
35257;SDS011;21385;50.878;8.050;2022-08-19T06:49:04;34.00;;;25.55;;
35257;SDS011;21385;50.878;8.050;2022-08-19T06:51:33;29.13;;;25.73;;
35257;SDS011;21385;50.878;8.050;2022-08-19T06:53:59;30.88;;;24.77;;
35257;SDS011;21385;50.878;8.050;2022-08-19T06:56:26;29.50;;;24.40;;
35257;SDS011;21385;50.878;8.050;2022-08-19T06:58:59;27.30;;;24.38;;
35257;SDS011;21385;50.878;8.050;2022-08-19T07:03:59;27.40;;;24.48;;
35257;SDS011;21385;50.878;8.050;2022-08-19T07:06:27;30.33;;;23.55;;
35257;SDS011;21385;50.878;8.050;2022-08-19T07:08:52;28.83;;;23.80;;
35257;SDS011;21385;50.878;8.050;2022-08-19T07:11:18;27.48;;;23.98;;
35257;SDS011;21385;50.878;8.050;2022-08-19T07:13:44;26.75;;;23.83;;
35257;SDS011;21385;50.878;8.050;2022-08-19T07:16:12;26.33;;;23.48;;
35257;SDS011;21385;50.878;8.050;2022-08-19T07:18:39;28.20;;;22.92;;
35257;SDS011;21385;50.878;8.050;2022-08-19T07:21:13;26.33;;;23.10;;
35257;SDS011;21385;50.878;8.050;2022-08-19T07:23:44;31.33;;;23.60;;
35257;SDS011;21385;50.878;8.050;2022-08-19T07:26:12;31.17;;;25.23;;
35257;SDS011;21385;50.878;8.050;2022-08-19T07:28:39;26.73;;;23.60;;
35257;SDS011;21385;50.878;8.050;2022-08-19T07:31:07;45.13;;;26.77;;
35257;SDS011;21385;50.878;8.050;2022-08-19T07:33:35;27.30;;;22.67;;
35257;SDS011;21385;50.878;8.050;2022-08-19T07:36:04;26.65;;;21.88;;
35257;SDS011;21385;50.878;8.050;2022-08-19T07:38:31;27.70;;;20.83;;
35257;SDS011;21385;50.878;8.050;2022-08-19T07:40:57;26.75;;;21.73;;
35257;SDS011;21385;50.878;8.050;2022-08-19T07:43:23;25.80;;;22.90;;
35257;SDS011;21385;50.878;8.050;2022-08-19T07:45:51;25.50;;;21.65;;
35257;SDS011;21385;50.878;8.050;2022-08-19T07:48:20;28.52;;;22.77;;
35257;SDS011;21385;50.878;8.050;2022-08-19T07:50:49;23.90;;;20.17;;
35257;SDS011;21385;50.878;8.050;2022-08-19T07:53:16;29.42;;;20.92;;
35257;SDS011;21385;50.878;8.050;2022-08-19T07:55:41;27.13;;;21.75;;
35257;SDS011;21385;50.878;8.050;2022-08-19T07:58:07;25.10;;;22.27;;
35257;SDS011;21385;50.878;8.050;2022-08-19T08:00:33;23.77;;;20.10;;
35257;SDS011;21385;50.878;8.050;2022-08-19T08:03:00;21.38;;;19.40;;
35257;SDS011;21385;50.878;8.050;2022-08-19T08:05:25;21.83;;;19.38;;
35257;SDS011;21385;50.878;8.050;2022-08-19T08:08:13;20.42;;;18.33;;
35257;SDS011;21385;50.878;8.050;2022-08-19T08:10:57;20.83;;;18.25;;
35257;SDS011;21385;50.878;8.050;2022-08-19T08:13:24;20.40;;;17.48;;
35257;SDS011;21385;50.878;8.050;2022-08-19T08:15:51;17.65;;;15.68;;
35257;SDS011;21385;50.878;8.050;2022-08-19T08:18:16;16.40;;;14.93;;
35257;SDS011;21385;50.878;8.050;2022-08-19T08:20:43;17.13;;;15.32;;
35257;SDS011;21385;50.878;8.050;2022-08-19T08:23:09;19.38;;;15.38;;
35257;SDS011;21385;50.878;8.050;2022-08-19T08:25:50;17.42;;;15.15;;
35257;SDS011;21385;50.878;8.050;2022-08-19T08:28:18;16.75;;;15.13;;
35257;SDS011;21385;50.878;8.050;2022-08-19T08:30:44;16.40;;;14.70;;
35257;SDS011;21385;50.878;8.050;2022-08-19T08:33:12;17.35;;;15.55;;
35257;SDS011;21385;50.878;8.050;2022-08-19T08:35:41;17.77;;;16.08;;
35257;SDS011;21385;50.878;8.050;2022-08-19T08:38:07;16.98;;;13.98;;
35257;SDS011;21385;50.878;8.050;2022-08-19T08:43:21;13.73;;;12.48;;
35257;SDS011;21385;50.878;8.050;2022-08-19T08:51:03;15.75;;;14.45;;
35257;SDS011;21385;50.878;8.050;2022-08-19T08:53:33;18.08;;;16.17;;
35257;SDS011;21385;50.878;8.050;2022-08-19T08:56:01;15.85;;;14.35;;
35257;SDS011;21385;50.878;8.050;2022-08-19T08:58:30;17.25;;;15.75;;
35257;SDS011;21385;50.878;8.050;2022-08-19T09:01:08;20.42;;;18.52;;
35257;SDS011;21385;50.878;8.050;2022-08-19T09:03:36;20.38;;;17.92;;
35257;SDS011;21385;50.878;8.050;2022-08-19T09:06:07;19.10;;;17.58;;
35257;SDS011;21385;50.878;8.050;2022-08-19T09:11:28;18.23;;;16.42;;
35257;SDS011;21385;50.878;8.050;2022-08-19T09:14:39;18.10;;;16.50;;
35257;SDS011;21385;50.878;8.050;2022-08-19T09:17:06;18.27;;;16.45;;
35257;SDS011;21385;50.878;8.050;2022-08-19T09:19:36;15.30;;;14.00;;
35257;SDS011;21385;50.878;8.050;2022-08-19T09:22:38;15.18;;;13.98;;
35257;SDS011;21385;50.878;8.050;2022-08-19T09:25:07;17.92;;;16.10;;
35257;SDS011;21385;50.878;8.050;2022-08-19T09:27:35;17.33;;;15.65;;
35257;SDS011;21385;50.878;8.050;2022-08-19T09:30:03;16.10;;;14.73;;
35257;SDS011;21385;50.878;8.050;2022-08-19T09:32:29;14.95;;;13.48;;
35257;SDS011;21385;50.878;8.050;2022-08-19T09:34:55;15.05;;;13.77;;
35257;SDS011;21385;50.878;8.050;2022-08-19T09:37:23;14.48;;;13.27;;
35257;SDS011;21385;50.878;8.050;2022-08-19T09:39:49;14.10;;;12.68;;
35257;SDS011;21385;50.878;8.050;2022-08-19T09:42:15;14.32;;;13.13;;
35257;SDS011;21385;50.878;8.050;2022-08-19T09:44:42;12.98;;;11.85;;
35257;SDS011;21385;50.878;8.050;2022-08-19T09:47:08;18.80;;;14.40;;
35257;SDS011;21385;50.878;8.050;2022-08-19T09:49:36;14.50;;;13.20;;
35257;SDS011;21385;50.878;8.050;2022-08-19T09:52:03;11.77;;;10.63;;
35257;SDS011;21385;50.878;8.050;2022-08-19T09:54:29;14.77;;;12.18;;
35257;SDS011;21385;50.878;8.050;2022-08-19T09:56:55;11.85;;;10.73;;
35257;SDS011;21385;50.878;8.050;2022-08-19T09:59:22;13.02;;;11.82;;
35257;SDS011;21385;50.878;8.050;2022-08-19T10:01:48;11.30;;;10.30;;
35257;SDS011;21385;50.878;8.050;2022-08-19T10:04:14;10.52;;;9.52;;
35257;SDS011;21385;50.878;8.050;2022-08-19T10:06:40;11.02;;;10.02;;
35257;SDS011;21385;50.878;8.050;2022-08-19T10:09:07;11.05;;;9.88;;
35257;SDS011;21385;50.878;8.050;2022-08-19T10:11:35;9.18;;;7.55;;
35257;SDS011;21385;50.878;8.050;2022-08-19T10:14:04;6.70;;;6.00;;
35257;SDS011;21385;50.878;8.050;2022-08-19T10:16:33;8.70;;;6.53;;
35257;SDS011;21385;50.878;8.050;2022-08-19T10:19:01;5.70;;;5.28;;
35257;SDS011;21385;50.878;8.050;2022-08-19T10:21:29;7.00;;;6.22;;
35257;SDS011;21385;50.878;8.050;2022-08-19T10:23:56;6.13;;;5.13;;
35257;SDS011;21385;50.878;8.050;2022-08-19T10:26:28;6.03;;;5.38;;
35257;SDS011;21385;50.878;8.050;2022-08-19T10:28:56;5.32;;;4.82;;
35257;SDS011;21385;50.878;8.050;2022-08-19T10:31:23;7.78;;;5.68;;
35257;SDS011;21385;50.878;8.050;2022-08-19T10:33:52;4.78;;;4.38;;
35257;SDS011;21385;50.878;8.050;2022-08-19T10:36:23;5.55;;;4.10;;
35257;SDS011;21385;50.878;8.050;2022-08-19T10:38:54;5.60;;;4.53;;
35257;SDS011;21385;50.878;8.050;2022-08-19T10:41:24;5.45;;;4.38;;
35257;SDS011;21385;50.878;8.050;2022-08-19T10:43:53;3.80;;;3.50;;
35257;SDS011;21385;50.878;8.050;2022-08-19T10:46:20;3.88;;;3.45;;
35257;SDS011;21385;50.878;8.050;2022-08-19T10:48:48;4.25;;;3.83;;
35257;SDS011;21385;50.878;8.050;2022-08-19T10:51:14;4.50;;;3.95;;
35257;SDS011;21385;50.878;8.050;2022-08-19T10:53:59;4.90;;;4.35;;
35257;SDS011;21385;50.878;8.050;2022-08-19T10:56:25;4.50;;;4.10;;
35257;SDS011;21385;50.878;8.050;2022-08-19T10:59:10;4.05;;;3.35;;
35257;SDS011;21385;50.878;8.050;2022-08-19T11:01:38;3.70;;;3.40;;
35257;SDS011;21385;50.878;8.050;2022-08-19T11:04:05;3.67;;;3.20;;
35257;SDS011;21385;50.878;8.050;2022-08-19T11:06:34;5.70;;;3.40;;
35257;SDS011;21385;50.878;8.050;2022-08-19T11:09:01;3.70;;;3.30;;
35257;SDS011;21385;50.878;8.050;2022-08-19T11:11:27;4.18;;;3.88;;
35257;SDS011;21385;50.878;8.050;2022-08-19T11:13:53;4.18;;;3.78;;
35257;SDS011;21385;50.878;8.050;2022-08-19T11:16:20;5.30;;;4.80;;
35257;SDS011;21385;50.878;8.050;2022-08-19T11:18:52;4.68;;;4.28;;
35257;SDS011;21385;50.878;8.050;2022-08-19T11:21:21;11.32;;;4.60;;
35257;SDS011;21385;50.878;8.050;2022-08-19T11:23:51;4.00;;;3.30;;
35257;SDS011;21385;50.878;8.050;2022-08-19T11:26:19;4.10;;;3.22;;
35257;SDS011;21385;50.878;8.050;2022-08-19T11:28:46;3.70;;;2.65;;
35257;SDS011;21385;50.878;8.050;2022-08-19T11:31:13;4.55;;;3.00;;
35257;SDS011;21385;50.878;8.050;2022-08-19T11:33:42;3.42;;;2.78;;
35257;SDS011;21385;50.878;8.050;2022-08-19T11:36:08;3.95;;;3.50;;
35257;SDS011;21385;50.878;8.050;2022-08-19T11:38:35;4.82;;;3.38;;
35257;SDS011;21385;50.878;8.050;2022-08-19T11:41:02;4.95;;;3.03;;
35257;SDS011;21385;50.878;8.050;2022-08-19T11:43:30;5.93;;;3.50;;
35257;SDS011;21385;50.878;8.050;2022-08-19T11:45:56;4.78;;;3.63;;
35257;SDS011;21385;50.878;8.050;2022-08-19T11:48:22;4.47;;;3.25;;
35257;SDS011;21385;50.878;8.050;2022-08-19T11:50:49;4.40;;;3.20;;
35257;SDS011;21385;50.878;8.050;2022-08-19T11:53:16;3.40;;;3.10;;
35257;SDS011;21385;50.878;8.050;2022-08-19T11:55:44;3.72;;;3.40;;
35257;SDS011;21385;50.878;8.050;2022-08-19T11:58:10;6.65;;;3.42;;
35257;SDS011;21385;50.878;8.050;2022-08-19T12:00:37;3.25;;;2.95;;
35257;SDS011;21385;50.878;8.050;2022-08-19T12:03:03;3.10;;;2.80;;
35257;SDS011;21385;50.878;8.050;2022-08-19T12:05:29;3.65;;;2.50;;
35257;SDS011;21385;50.878;8.050;2022-08-19T12:07:54;2.97;;;2.78;;
35257;SDS011;21385;50.878;8.050;2022-08-19T12:10:21;3.30;;;3.00;;
35257;SDS011;21385;50.878;8.050;2022-08-19T12:12:47;3.75;;;3.45;;
35257;SDS011;21385;50.878;8.050;2022-08-19T12:15:13;4.55;;;3.20;;
35257;SDS011;21385;50.878;8.050;2022-08-19T12:17:39;3.88;;;3.10;;
35257;SDS011;21385;50.878;8.050;2022-08-19T12:20:07;3.25;;;3.00;;
35257;SDS011;21385;50.878;8.050;2022-08-19T12:22:34;5.93;;;2.88;;
35257;SDS011;21385;50.878;8.050;2022-08-19T12:25:01;3.95;;;3.65;;
35257;SDS011;21385;50.878;8.050;2022-08-19T12:27:27;5.65;;;4.00;;
35257;SDS011;21385;50.878;8.050;2022-08-19T12:29:52;3.63;;;3.08;;
35257;SDS011;21385;50.878;8.050;2022-08-19T12:32:18;5.35;;;3.15;;
35257;SDS011;21385;50.878;8.050;2022-08-19T12:34:43;3.35;;;3.05;;
35257;SDS011;21385;50.878;8.050;2022-08-19T12:37:12;3.65;;;3.35;;
35257;SDS011;21385;50.878;8.050;2022-08-19T12:39:39;3.58;;;3.22;;
35257;SDS011;21385;50.878;8.050;2022-08-19T12:42:07;4.35;;;3.40;;
35257;SDS011;21385;50.878;8.050;2022-08-19T12:44:33;4.80;;;3.47;;
35257;SDS011;21385;50.878;8.050;2022-08-19T12:47:00;4.47;;;3.20;;
35257;SDS011;21385;50.878;8.050;2022-08-19T12:49:28;3.55;;;3.33;;
35257;SDS011;21385;50.878;8.050;2022-08-19T12:51:54;3.90;;;3.60;;
35257;SDS011;21385;50.878;8.050;2022-08-19T12:54:20;4.57;;;4.18;;
35257;SDS011;21385;50.878;8.050;2022-08-19T12:56:45;4.70;;;4.30;;
35257;SDS011;21385;50.878;8.050;2022-08-19T12:59:11;4.35;;;4.00;;
35257;SDS011;21385;50.878;8.050;2022-08-19T13:01:37;4.65;;;4.18;;
35257;SDS011;21385;50.878;8.050;2022-08-19T13:04:03;4.65;;;4.25;;
35257;SDS011;21385;50.878;8.050;2022-08-19T13:06:29;4.78;;;4.38;;
35257;SDS011;21385;50.878;8.050;2022-08-19T13:08:55;5.32;;;4.93;;
35257;SDS011;21385;50.878;8.050;2022-08-19T13:11:21;4.38;;;4.00;;
35257;SDS011;21385;50.878;8.050;2022-08-19T13:13:51;4.93;;;4.13;;
35257;SDS011;21385;50.878;8.050;2022-08-19T13:16:18;4.88;;;3.95;;
35257;SDS011;21385;50.878;8.050;2022-08-19T13:18:46;4.40;;;4.00;;
35257;SDS011;21385;50.878;8.050;2022-08-19T13:21:12;4.28;;;3.97;;
35257;SDS011;21385;50.878;8.050;2022-08-19T13:23:38;3.90;;;3.50;;
35257;SDS011;21385;50.878;8.050;2022-08-19T13:26:05;4.35;;;4.05;;
35257;SDS011;21385;50.878;8.050;2022-08-19T13:28:32;4.45;;;4.03;;
35257;SDS011;21385;50.878;8.050;2022-08-19T13:31:18;4.50;;;4.10;;
35257;SDS011;21385;50.878;8.050;2022-08-19T13:34:03;4.55;;;4.22;;
35257;SDS011;21385;50.878;8.050;2022-08-19T13:36:31;5.38;;;4.15;;
35257;SDS011;21385;50.878;8.050;2022-08-19T13:38:57;5.97;;;5.35;;
35257;SDS011;21385;50.878;8.050;2022-08-19T13:41:23;8.52;;;4.10;;
35257;SDS011;21385;50.878;8.050;2022-08-19T13:43:49;5.53;;;5.13;;
35257;SDS011;21385;50.878;8.050;2022-08-19T13:46:15;5.50;;;5.00;;
35257;SDS011;21385;50.878;8.050;2022-08-19T13:48:41;6.25;;;4.75;;
35257;SDS011;21385;50.878;8.050;2022-08-19T13:51:07;5.15;;;4.65;;
35257;SDS011;21385;50.878;8.050;2022-08-19T13:53:37;5.60;;;4.53;;
35257;SDS011;21385;50.878;8.050;2022-08-19T13:56:07;5.68;;;5.10;;
35257;SDS011;21385;50.878;8.050;2022-08-19T14:01:00;6.38;;;5.55;;
35257;SDS011;21385;50.878;8.050;2022-08-19T14:03:26;5.93;;;5.40;;
35257;SDS011;21385;50.878;8.050;2022-08-19T14:05:52;6.22;;;5.63;;
35257;SDS011;21385;50.878;8.050;2022-08-19T14:08:18;7.70;;;5.65;;
35257;SDS011;21385;50.878;8.050;2022-08-19T14:10:44;7.85;;;5.70;;
35257;SDS011;21385;50.878;8.050;2022-08-19T14:13:12;5.35;;;4.85;;
35257;SDS011;21385;50.878;8.050;2022-08-19T14:15:40;5.90;;;4.65;;
35257;SDS011;21385;50.878;8.050;2022-08-19T14:18:05;5.63;;;5.15;;
35257;SDS011;21385;50.878;8.050;2022-08-19T14:20:33;8.68;;;5.10;;
35257;SDS011;21385;50.878;8.050;2022-08-19T14:22:59;6.10;;;5.00;;
35257;SDS011;21385;50.878;8.050;2022-08-19T14:25:27;6.93;;;4.88;;
35257;SDS011;21385;50.878;8.050;2022-08-19T14:27:54;7.47;;;4.97;;
35257;SDS011;21385;50.878;8.050;2022-08-19T14:30:21;5.50;;;4.95;;
35257;SDS011;21385;50.878;8.050;2022-08-19T14:32:50;5.50;;;4.47;;
35257;SDS011;21385;50.878;8.050;2022-08-19T14:35:16;5.05;;;4.60;;
35257;SDS011;21385;50.878;8.050;2022-08-19T14:37:43;5.43;;;4.90;;
35257;SDS011;21385;50.878;8.050;2022-08-19T14:40:10;8.38;;;4.65;;
35257;SDS011;21385;50.878;8.050;2022-08-19T14:42:36;5.05;;;4.55;;
35257;SDS011;21385;50.878;8.050;2022-08-19T14:45:02;7.50;;;4.45;;
35257;SDS011;21385;50.878;8.050;2022-08-19T14:47:30;5.75;;;4.03;;
35257;SDS011;21385;50.878;8.050;2022-08-19T14:49:55;4.53;;;4.13;;
35257;SDS011;21385;50.878;8.050;2022-08-19T14:52:21;4.82;;;4.28;;
35257;SDS011;21385;50.878;8.050;2022-08-19T14:54:47;4.40;;;4.00;;
35257;SDS011;21385;50.878;8.050;2022-08-19T14:57:13;4.68;;;4.28;;